Time;durP1;ratioP1;P1;durP2;ratioP2;P2;SDS_P1;SDS_P2;PMS_P1;PMS_P2;Temp;Humidity;BMP_temperature;BMP_pressure;BME280_temperature;BME280_humidity;BME280_pressure;Samples;Min_cycle;Max_cycle;Signal;HPM_P1;HPM_P2
2022/01/13 00:02:02;;;;;;;57.93;14.33;;;;;;;-142.75;100.00;80353.53;5030876;28;20033;-67
2022/01/13 00:04:27;;;;;;;47.67;14.07;;;;;;;-142.75;100.00;80353.53;5031152;28;20380;-68
2022/01/13 00:06:53;;;;;;;45.17;15.32;;;;;;;-142.75;100.00;80355.50;5000521;28;20022;-68
2022/01/13 00:09:18;;;;;;;43.50;14.50;;;;;;;-142.75;100.00;80347.59;5011092;28;20084;-68
2022/01/13 00:11:47;;;;;;;48.00;14.82;;;;;;;-142.75;100.00;80353.53;5011194;28;20121;-68
2022/01/13 00:17:06;;;;;;;59.50;15.97;;;;;;;-142.75;100.00;80371.25;5009965;28;20061;-68
2022/01/13 00:22:37;;;;;;;38.83;14.07;;;;;;;-142.75;100.00;80363.38;5010336;28;20026;-68
2022/01/13 00:25:03;;;;;;;62.23;13.30;;;;;;;-142.75;100.00;80357.47;5012926;28;20033;-67
2022/01/13 00:27:30;;;;;;;48.37;14.63;;;;;;;-142.75;100.00;80355.50;5030678;28;20112;-67
2022/01/13 00:29:59;;;;;;;40.60;14.00;;;;;;;-142.75;100.00;80351.56;5030472;28;20057;-67
2022/01/13 00:32:28;;;;;;;75.97;15.67;;;;;;;-142.75;100.00;80355.50;5030611;28;20052;-67
2022/01/13 00:34:53;;;;;;;59.90;16.23;;;;;;;-142.75;100.00;80343.66;5030611;28;20079;-68
2022/01/13 00:37:18;;;;;;;50.73;16.63;;;;;;;-142.75;100.00;80341.69;5030622;28;20037;-68
2022/01/13 00:39:44;;;;;;;64.97;17.47;;;;;;;-142.75;100.00;80339.72;5012914;28;20706;-67
2022/01/13 00:42:09;;;;;;;61.20;17.77;;;;;;;-142.75;100.00;80339.72;5030514;28;20290;-67
2022/01/13 00:44:37;;;;;;;76.22;18.77;;;;;;;-142.75;100.00;80335.78;5012947;28;20032;-68
2022/01/13 00:47:05;;;;;;;62.77;17.97;;;;;;;-142.75;100.00;80335.78;5030364;28;20029;-67
2022/01/13 00:49:31;;;;;;;92.13;18.23;;;;;;;-142.75;100.00;80325.94;5030221;28;20021;-68
2022/01/13 00:51:56;;;;;;;76.38;19.77;;;;;;;-142.75;100.00;80335.78;5030485;28;20497;-67
2022/01/13 00:54:22;;;;;;;60.00;19.80;;;;;;;-142.75;100.00;80329.88;5030553;28;20049;-68
2022/01/13 00:56:47;;;;;;;64.45;20.38;;;;;;;-142.75;100.00;80323.97;5030443;28;20108;-68
2022/01/13 00:59:14;;;;;;;53.73;19.30;;;;;;;-142.75;100.00;80329.88;5030134;28;20109;-69
2022/01/13 01:01:43;;;;;;;71.37;21.80;;;;;;;-142.75;100.00;80327.91;5030351;28;20025;-67
2022/01/13 01:04:09;;;;;;;62.57;19.40;;;;;;;-142.75;100.00;80327.91;5030374;28;20045;-68
2022/01/13 01:06:35;;;;;;;94.32;18.98;;;;;;;-142.75;100.00;80327.91;5030202;28;20037;-68
2022/01/13 01:09:03;;;;;;;59.93;18.53;;;;;;;-142.75;100.00;80329.88;5030022;28;20080;-68
2022/01/13 01:11:28;;;;;;;66.40;19.53;;;;;;;-142.75;100.00;80333.81;5030385;28;20021;-68
2022/01/13 01:13:55;;;;;;;51.33;16.55;;;;;;;-142.75;100.00;80327.91;5030269;28;20548;-67
2022/01/13 01:16:21;;;;;;;58.03;17.70;;;;;;;-142.75;100.00;80333.81;5030125;28;20040;-68
2022/01/13 01:31:30;;;;;;;57.60;15.47;;;;;;;-142.75;100.00;80343.66;5030202;28;20029;-68
2022/01/13 01:36:41;;;;;;;48.73;14.90;;;;;;;-142.75;100.00;80333.81;5033893;28;20030;-68
2022/01/13 01:39:08;;;;;;;67.57;16.30;;;;;;;-142.75;100.00;80325.94;5033440;28;20025;-67
2022/01/13 01:41:39;;;;;;;49.20;15.30;;;;;;;-142.75;100.00;80329.88;5033587;28;20028;-68
2022/01/13 01:44:09;;;;;;;54.87;16.53;;;;;;;-142.75;100.00;80323.97;5033387;28;20087;-68
2022/01/13 01:46:35;;;;;;;54.97;17.03;;;;;;;-142.75;100.00;80320.03;5015515;28;20063;-69
2022/01/13 01:49:14;;;;;;;59.37;16.20;;;;;;;-142.75;100.00;80316.09;5033254;28;20036;-68
2022/01/13 01:51:39;;;;;;;69.50;18.30;;;;;;;-142.75;100.00;80320.03;5033575;28;20438;-68
2022/01/13 01:54:05;;;;;;;76.65;16.92;;;;;;;-142.75;100.00;80323.97;5015682;28;20033;-67
2022/01/13 01:56:30;;;;;;;93.10;17.83;;;;;;;-142.75;100.00;80316.09;5033224;28;20468;-67
2022/01/13 01:59:00;;;;;;;74.00;17.58;;;;;;;-142.75;100.00;80318.06;5033001;28;20064;-68
2022/01/13 02:01:27;;;;;;;66.33;17.23;;;;;;;-142.75;100.00;80316.09;5033266;28;20100;-68
2022/01/13 02:03:52;;;;;;;67.47;19.77;;;;;;;-142.75;100.00;80308.19;5033275;28;20037;-68
2022/01/13 02:06:18;;;;;;;59.20;17.57;;;;;;;-142.75;100.00;80300.31;5033209;28;20053;-68
2022/01/13 02:08:44;;;;;;;;;;;;;;;-142.75;100.00;80294.41;5033352;28;20282;-68
2022/01/13 02:11:09;;;;;;;55.13;16.83;;;;;;;-142.75;100.00;80288.50;5015320;28;19913;-68
2022/01/13 02:13:36;;;;;;;56.03;17.65;;;;;;;-142.75;100.00;80278.66;5015578;28;20479;-67
2022/01/13 02:16:04;;;;;;;53.77;19.03;;;;;;;-142.75;100.00;80288.50;5032925;28;20108;-67
2022/01/13 02:18:31;;;;;;;57.10;18.43;;;;;;;-142.75;100.00;80286.53;5032848;28;20022;-67
2022/01/13 02:20:56;;;;;;;53.67;19.03;;;;;;;-142.75;100.00;80290.47;5033003;28;20021;-68
2022/01/13 02:23:32;;;;;;;66.75;19.27;;;;;;;-142.75;100.00;80304.25;5032851;28;20036;-68
2022/01/13 02:25:58;;;;;;;50.80;17.70;;;;;;;-142.75;100.00;80294.41;5032882;28;20029;-68
2022/01/13 02:28:24;;;;;;;47.97;16.85;;;;;;;-142.75;100.00;80294.41;5032670;28;20491;-67
2022/01/13 02:30:49;;;;;;;63.78;17.60;;;;;;;-142.75;100.00;80292.44;5032939;28;20108;-68
2022/01/13 02:33:14;;;;;;;57.78;17.42;;;;;;;-142.75;100.00;80288.50;5032899;28;20036;-67
2022/01/13 02:35:39;;;;;;;52.63;18.60;;;;;;;-142.75;100.00;80284.56;5032810;28;20407;-68
2022/01/13 02:38:12;;;;;;;48.77;17.40;;;;;;;-142.75;100.00;80288.50;5014823;28;20029;-67
2022/01/13 02:40:38;;;;;;;61.80;18.03;;;;;;;-142.75;100.00;80288.50;5032717;28;20283;-68
2022/01/13 02:43:05;;;;;;;52.87;17.47;;;;;;;-142.75;100.00;80290.47;5032499;28;20064;-68
2022/01/13 02:45:35;;;;;;;54.17;17.93;;;;;;;-142.75;100.00;80298.34;5013853;28;20536;-68
2022/01/13 02:50:26;;;;;;;92.07;19.15;;;;;;;-142.75;100.00;80302.28;5032472;28;20033;-68
2022/01/13 02:52:51;;;;;;;53.55;18.52;;;;;;;-142.75;100.00;80296.38;5032353;28;20053;-68
2022/01/13 02:55:16;;;;;;;55.33;19.15;;;;;;;-142.75;100.00;80284.56;5014564;28;20025;-67
2022/01/13 02:57:41;;;;;;;47.90;18.20;;;;;;;-142.75;100.00;80284.56;5032231;28;20025;-67
2022/01/13 03:00:07;;;;;;;58.77;19.27;;;;;;;-142.75;100.00;80270.75;5031959;28;20280;-68
2022/01/13 03:02:33;;;;;;;60.72;18.23;;;;;;;-142.75;100.00;80274.72;5032222;28;20291;-67
2022/01/13 03:04:59;;;;;;;67.25;19.05;;;;;;;-142.75;100.00;80276.69;5032168;28;20108;-67
2022/01/13 03:07:25;;;;;;;56.22;18.58;;;;;;;-142.75;100.00;80270.75;5031887;28;20034;-68
2022/01/13 03:09:51;;;;;;;72.17;18.23;;;;;;;-142.75;100.00;80274.72;5014069;28;20446;-68
2022/01/13 03:12:16;;;;;;;56.35;19.60;;;;;;;-142.75;100.00;80268.78;5031890;28;20113;-68
2022/01/13 03:14:42;;;;;;;64.50;18.75;;;;;;;-142.75;100.00;80260.91;5031999;28;20091;-68
2022/01/13 03:17:07;;;;;;;73.53;18.77;;;;;;;-142.75;100.00;80276.69;5031979;28;20028;-67
2022/01/13 03:19:32;;;;;;;61.30;18.63;;;;;;;-142.75;100.00;80280.63;5031660;28;20497;-68
2022/01/13 03:21:57;;;;;;;63.40;17.38;;;;;;;-142.75;100.00;80280.63;5013955;28;20275;-68
2022/01/13 03:24:23;;;;;;;54.00;18.70;;;;;;;-142.75;100.00;80280.63;5031760;28;20033;-68
2022/01/13 03:26:49;;;;;;;70.53;16.35;;;;;;;-142.75;100.00;80274.72;5017597;28;20025;-67
2022/01/13 03:29:16;;;;;;;60.70;18.08;;;;;;;-142.75;100.00;80268.78;5011672;28;20032;-68
2022/01/13 03:31:46;;;;;;;54.97;18.07;;;;;;;-142.75;100.00;80256.97;5011909;28;20180;-68
2022/01/13 03:34:13;;;;;;;66.17;18.13;;;;;;;-142.75;100.00;80249.09;5011877;28;20025;-68
2022/01/13 03:36:40;;;;;;;52.43;17.17;;;;;;;-142.75;100.00;80231.34;5010396;28;20034;-68
2022/01/13 03:39:07;;;;;;;55.67;17.83;;;;;;;-142.75;100.00;80231.34;5011415;28;20038;-68
2022/01/13 03:41:34;;;;;;;60.00;17.70;;;;;;;-142.75;100.00;80219.53;5011637;28;20049;-68
2022/01/13 03:44:05;;;;;;;46.63;16.23;;;;;;;-142.75;100.00;80215.59;5011616;28;20038;-67
2022/01/13 03:46:31;;;;;;;48.90;16.50;;;;;;;-142.75;100.00;80219.53;5011430;28;20032;-68
2022/01/13 03:48:56;;;;;;;50.53;17.23;;;;;;;-142.75;100.00;80219.53;5011306;28;20021;-67
2022/01/13 03:51:21;;;;;;;64.00;18.00;;;;;;;-142.75;100.00;80227.41;5011414;28;20399;-67
2022/01/13 03:54:27;;;;;;;52.43;17.20;;;;;;;-142.75;100.00;80219.53;5011621;28;20273;-68
2022/01/13 03:57:11;;;;;;;56.20;18.03;;;;;;;-142.75;100.00;80215.59;5011087;28;20315;-68
2022/01/13 04:00:07;;;;;;;55.80;16.93;;;;;;;-142.75;100.00;80221.50;5011030;28;20026;-67
2022/01/13 04:02:34;;;;;;;54.60;17.90;;;;;;;-142.75;100.00;80221.50;5011456;28;20087;-68
2022/01/13 04:04:59;;;;;;;44.87;16.07;;;;;;;-142.75;100.00;80229.38;4993725;28;20034;-67
2022/01/13 04:07:25;;;;;;;55.78;18.13;;;;;;;-142.75;100.00;80223.47;4993742;28;20017;-67
2022/01/13 04:09:50;;;;;;;69.47;17.50;;;;;;;-142.75;100.00;80225.44;4993322;28;20030;-67
2022/01/13 04:12:19;;;;;;;52.17;18.25;;;;;;;-142.75;100.00;80223.47;5011248;28;20018;-67
2022/01/13 04:14:48;;;;;;;52.67;19.03;;;;;;;-142.75;100.00;80233.31;5011147;28;20025;-68
2022/01/13 04:17:19;;;;;;;51.07;17.83;;;;;;;-142.75;100.00;80235.31;5011101;28;20384;-68
2022/01/13 04:19:45;;;;;;;68.43;18.40;;;;;;;-142.75;100.00;80229.38;5010686;28;20113;-68
2022/01/13 04:22:11;;;;;;;60.97;18.33;;;;;;;-142.75;100.00;80239.25;5011099;28;20492;-67
2022/01/13 04:24:38;;;;;;;65.05;20.27;;;;;;;-142.75;100.00;80229.38;4993499;28;20057;-67
2022/01/13 04:27:04;;;;;;;56.77;19.27;;;;;;;-142.75;100.00;80235.31;5011031;28;20030;-67
2022/01/13 04:29:39;;;;;;;51.93;18.23;;;;;;;-142.75;100.00;80233.31;5010811;28;20060;-67
2022/01/13 04:32:05;;;;;;;44.17;17.43;;;;;;;-142.75;100.00;80229.38;5030765;28;20022;-68
2022/01/13 04:34:31;;;;;;;;;;;;;;;-142.75;100.00;80225.44;5031097;28;20104;-68
2022/01/13 04:37:00;;;;;;;49.93;19.13;;;;;;;-142.75;100.00;80225.44;5030544;28;19963;-67
2022/01/13 04:39:28;;;;;;;49.40;19.57;;;;;;;-142.75;100.00;80215.59;5012568;28;20029;-67
2022/01/13 04:41:54;;;;;;;58.90;18.47;;;;;;;-142.75;100.00;80221.50;5030514;28;20053;-68
2022/01/13 04:44:20;;;;;;;;;;;;;;;-142.75;100.00;80225.44;5031006;28;20112;-67
2022/01/13 04:46:48;;;;;;;60.42;18.90;;;;;;;-142.75;100.00;80231.34;5052447;22;19931;-67
2022/01/13 04:49:14;;;;;;;65.00;18.73;;;;;;;-142.75;100.00;80243.19;5026905;28;20018;-66
2022/01/13 04:51:40;;;;;;;71.80;17.90;;;;;;;-142.75;100.00;80247.13;5011924;28;20100;-67
2022/01/13 04:54:06;;;;;;;58.97;19.57;;;;;;;-142.75;100.00;80253.03;5031058;28;20517;-67
2022/01/13 04:56:42;;;;;;;83.28;19.60;;;;;;;-142.75;100.00;80268.78;5012755;28;20051;-67
2022/01/13 04:59:07;;;;;;;48.73;18.07;;;;;;;-142.75;100.00;80274.72;5030727;28;20533;-66
2022/01/13 05:01:34;;;;;;;76.50;18.45;;;;;;;-142.75;100.00;80276.69;5030253;28;20037;-65
2022/01/13 05:03:59;;;;;;;80.70;17.65;;;;;;;-142.75;100.00;80274.72;5013234;28;20021;-66
2022/01/13 05:06:24;;;;;;;93.65;18.80;;;;;;;-142.75;100.00;80288.50;5047037;28;20513;-66
2022/01/13 05:08:50;;;;;;;108.10;18.77;;;;;;;-142.75;100.00;80288.50;5032478;28;20483;-65
2022/01/13 05:11:17;;;;;;;81.45;19.38;;;;;;;-142.75;100.00;80288.50;5042648;28;20048;-66
2022/01/13 05:13:43;;;;;;;90.37;18.17;;;;;;;-142.75;100.00;80314.13;5036382;28;20036;-65
2022/01/13 05:16:16;;;;;;;88.53;20.17;;;;;;;-142.75;100.00;80304.25;5040489;28;20044;-66
2022/01/13 05:18:49;;;;;;;71.63;19.50;;;;;;;-142.75;100.00;80294.41;5033376;28;20052;-66
2022/01/13 05:21:23;;;;;;;74.33;19.40;;;;;;;-142.75;100.00;80304.25;5034082;28;20383;-65
2022/01/13 05:23:49;;;;;;;85.90;21.50;;;;;;;-142.75;100.00;80312.16;5034144;28;20112;-65
2022/01/13 05:26:15;;;;;;;71.53;21.13;;;;;;;-142.75;100.00;80304.25;5030285;28;20115;-63
2022/01/13 05:28:41;;;;;;;75.22;21.00;;;;;;;-142.75;100.00;80308.19;5030676;28;20021;-66
2022/01/13 05:31:07;;;;;;;79.25;22.17;;;;;;;-142.75;100.00;80308.19;5036743;28;20021;-65
2022/01/13 05:33:33;;;;;;;85.97;22.30;;;;;;;-142.75;100.00;80314.13;5045490;28;20040;-65
2022/01/13 05:36:00;;;;;;;69.63;21.98;;;;;;;-142.75;100.00;80302.28;5053736;28;20103;-66
2022/01/13 05:38:25;;;;;;;86.03;22.70;;;;;;;-142.75;100.00;80304.25;5044354;28;20022;-65
2022/01/13 05:40:51;;;;;;;62.28;21.67;;;;;;;-142.75;100.00;80306.22;5033691;28;20083;-65
2022/01/13 05:43:16;;;;;;;69.63;22.15;;;;;;;-142.75;100.00;80300.31;5016090;28;20032;-65
2022/01/13 05:45:41;;;;;;;67.53;22.80;;;;;;;-142.75;100.00;80296.38;5050018;28;20393;-65
2022/01/13 05:48:07;;;;;;;64.80;21.98;;;;;;;-142.75;100.00;80292.44;5035407;28;20501;-65
2022/01/13 05:50:32;;;;;;;63.25;21.25;;;;;;;-142.75;100.00;80276.69;5022219;28;20509;-65
2022/01/13 05:52:58;;;;;;;58.65;21.95;;;;;;;-142.75;100.00;80272.75;5036363;28;20025;-65
2022/01/13 05:55:24;;;;;;;70.75;21.73;;;;;;;-142.75;100.00;80268.78;5015828;28;20017;-65
2022/01/13 05:57:49;;;;;;;66.50;19.98;;;;;;;-142.75;100.00;80274.72;5033250;28;20695;-64
2022/01/13 06:00:18;;;;;;;73.70;21.65;;;;;;;-142.75;100.00;80276.69;5039194;28;20025;-66
2022/01/13 06:02:45;;;;;;;71.20;22.07;;;;;;;-142.75;100.00;80272.75;5053324;28;20398;-65
2022/01/13 06:05:11;;;;;;;60.50;20.13;;;;;;;-142.75;100.00;80256.97;5053247;28;20065;-65
2022/01/13 06:07:37;;;;;;;94.10;21.75;;;;;;;-142.75;100.00;80276.69;5053532;28;20025;-66
2022/01/13 06:10:04;;;;;;;73.03;21.30;;;;;;;-142.75;100.00;80276.69;5035089;28;20033;-65
2022/01/13 06:12:35;;;;;;;75.47;22.53;;;;;;;-142.75;100.00;80274.72;5035114;28;20078;-65
2022/01/13 06:15:02;;;;;;;80.00;21.50;;;;;;;-142.75;100.00;80286.53;5035300;28;20493;-65
2022/01/13 06:17:28;;;;;;;79.73;20.70;;;;;;;-142.75;100.00;80288.50;5032131;28;20029;-65
2022/01/13 06:19:55;;;;;;;80.93;22.27;;;;;;;-142.75;100.00;80292.44;5031489;28;20088;-65
2022/01/13 06:22:21;;;;;;;67.90;22.90;;;;;;;-142.75;100.00;80272.75;5032865;28;20026;-65
2022/01/13 06:24:46;;;;;;;80.55;22.65;;;;;;;-142.75;100.00;80280.63;5032800;28;20105;-66
2022/01/13 06:27:11;;;;;;;67.30;23.17;;;;;;;-142.75;100.00;80280.63;5032849;28;20109;-66
2022/01/13 06:29:36;;;;;;;126.73;23.73;;;;;;;-142.75;100.00;80286.53;5032643;28;20017;-66
2022/01/13 06:32:02;;;;;;;74.87;23.70;;;;;;;-142.75;100.00;80264.84;5032826;28;20704;-66
2022/01/13 06:34:27;;;;;;;72.15;23.80;;;;;;;-142.75;100.00;80256.97;5032768;28;20108;-66
2022/01/13 06:36:53;;;;;;;73.10;25.35;;;;;;;-142.75;100.00;80260.91;5032623;28;20025;-65
2022/01/13 06:39:18;;;;;;;75.07;24.88;;;;;;;-142.75;100.00;80255.00;5032233;28;20029;-65
2022/01/13 06:41:43;;;;;;;74.53;24.65;;;;;;;-142.75;100.00;80256.97;5014795;28;20052;-66
2022/01/13 06:44:09;;;;;;;74.25;25.98;;;;;;;-142.75;100.00;80245.16;5032605;28;20057;-65
2022/01/13 06:46:34;;;;;;;69.50;24.98;;;;;;;-142.75;100.00;80241.22;5032411;28;20026;-65
2022/01/13 06:49:00;;;;;;;67.50;23.03;;;;;;;-142.75;100.00;80253.03;5013934;28;20514;-65
2022/01/13 06:51:25;;;;;;;69.13;23.30;;;;;;;-142.75;100.00;80239.25;5041089;28;20378;-66
2022/01/13 06:53:50;;;;;;;65.57;22.90;;;;;;;-142.75;100.00;80237.28;5052196;28;20358;-65
2022/01/13 06:56:15;;;;;;;68.25;24.67;;;;;;;-142.75;100.00;80249.09;5034179;28;20501;-65
2022/01/13 06:58:44;;;;;;;62.58;22.48;;;;;;;-142.75;100.00;80237.28;5050087;28;20032;-69
2022/01/13 07:01:10;;;;;;;63.30;24.07;;;;;;;-142.75;100.00;80245.16;5035665;28;20029;-68
2022/01/13 07:03:35;;;;;;;69.53;23.83;;;;;;;-142.75;100.00;80245.16;5045669;28;20030;-68
2022/01/13 07:06:00;;;;;;;67.70;23.55;;;;;;;-142.75;100.00;80247.13;5021929;28;20022;-68
2022/01/13 07:08:26;;;;;;;58.60;21.98;;;;;;;-142.75;100.00;80237.28;5036456;28;20033;-68
2022/01/13 07:10:51;;;;;;;65.20;21.95;;;;;;;-142.75;100.00;80231.34;5048995;28;20208;-69
2022/01/13 07:13:16;;;;;;;57.77;22.37;;;;;;;-142.75;100.00;80225.44;5041538;28;20079;-69
2022/01/13 07:15:45;;;;;;;61.33;23.53;;;;;;;-142.75;100.00;80233.31;5043028;28;20310;-68
2022/01/13 07:18:11;;;;;;;77.10;23.57;;;;;;;-142.75;100.00;80243.19;5048439;28;20274;-68
2022/01/13 07:20:39;;;;;;;62.15;24.02;;;;;;;-142.75;100.00;80256.97;5040919;28;20111;-69
2022/01/13 07:23:04;;;;;;;59.53;23.10;;;;;;;-142.75;100.00;80249.09;5046513;28;20036;-70
2022/01/13 07:25:30;;;;;;;58.30;22.57;;;;;;;-142.75;100.00;80249.09;5048009;28;20490;-71
2022/01/13 07:27:55;;;;;;;72.40;22.83;;;;;;;-142.75;100.00;80243.19;5043456;28;20276;-70
2022/01/13 07:30:20;;;;;;;66.13;23.07;;;;;;;-142.75;100.00;80243.19;5025682;28;20456;-70
2022/01/13 07:32:45;;;;;;;71.05;21.58;;;;;;;-142.75;100.00;80247.13;5037472;28;20079;-70
2022/01/13 07:35:11;;;;;;;63.00;22.63;;;;;;;-142.75;100.00;80243.19;5044497;28;20025;-70
2022/01/13 07:37:36;;;;;;;75.15;22.95;;;;;;;-142.75;100.00;80237.28;5040921;28;20075;-70
2022/01/13 07:40:03;;;;;;;57.20;23.17;;;;;;;-142.75;100.00;80233.31;5027168;28;20036;-70
2022/01/13 07:42:29;;;;;;;84.70;23.30;;;;;;;-142.75;100.00;80249.09;5033216;28;20486;-71
2022/01/13 07:44:54;;;;;;;69.60;23.77;;;;;;;-142.75;100.00;80237.28;5045453;28;20070;-70
2022/01/13 07:47:20;;;;;;;59.13;21.67;;;;;;;-142.75;100.00;80237.28;5044085;28;20021;-70
2022/01/13 07:49:45;;;;;;;63.28;23.33;;;;;;;-142.75;100.00;80241.22;5040136;28;20055;-70
2022/01/13 07:52:10;;;;;;;63.53;23.95;;;;;;;-142.75;100.00;80237.28;5035384;28;20063;-70
2022/01/13 07:54:36;;;;;;;57.78;21.85;;;;;;;-142.75;100.00;80233.31;5046248;28;20505;-71
2022/01/13 07:57:01;;;;;;;57.83;21.20;;;;;;;-142.75;100.00;80231.34;5039027;28;20029;-70
2022/01/13 07:59:28;;;;;;;54.67;21.75;;;;;;;-142.75;100.00;80237.28;5046241;28;20028;-69
2022/01/13 08:01:54;;;;;;;62.47;21.70;;;;;;;-142.75;100.00;80235.31;5021963;28;20498;-70
2022/01/13 08:04:21;;;;;;;53.77;20.67;;;;;;;-142.75;100.00;80233.31;5042285;28;20029;-70
2022/01/13 08:06:46;;;;;;;63.07;22.20;;;;;;;-142.75;100.00;80223.47;5043422;28;20029;-70
2022/01/13 08:09:12;;;;;;;54.25;20.08;;;;;;;-142.75;100.00;80223.47;5018383;28;20036;-70
2022/01/13 08:11:37;;;;;;;46.97;20.05;;;;;;;-142.75;100.00;80223.47;5016143;28;20107;-71
2022/01/13 08:14:02;;;;;;;52.15;19.95;;;;;;;-142.75;100.00;80217.56;5021936;28;20384;-70
2022/01/13 08:16:33;;;;;;;69.13;20.33;;;;;;;-142.75;100.00;80217.56;5024918;28;20029;-71
2022/01/13 08:21:42;;;;;;;51.13;18.27;;;;;;;-142.75;100.00;80213.63;5030180;28;20099;-71
2022/01/13 08:24:07;;;;;;;63.33;19.10;;;;;;;-142.75;100.00;80217.56;5030174;28;20029;-68
2022/01/13 08:26:33;;;;;;;51.88;19.42;;;;;;;-142.75;100.00;80197.88;5034788;28;20025;-69
2022/01/13 08:28:58;;;;;;;49.97;19.10;;;;;;;-142.75;100.00;80205.75;5039682;28;20048;-70
2022/01/13 08:31:24;;;;;;;53.70;20.08;;;;;;;-142.75;100.00;80205.75;5049085;28;20053;-69
2022/01/13 08:33:49;;;;;;;53.20;18.83;;;;;;;-142.75;100.00;80201.81;5041916;28;20025;-70
2022/01/13 08:36:14;;;;;;;54.83;19.15;;;;;;;-142.75;100.00;80197.88;5028333;28;20047;-70
2022/01/13 08:38:39;;;;;;;57.15;19.30;;;;;;;-142.75;100.00;80197.88;5048012;28;20394;-69
2022/01/13 08:41:05;;;;;;;44.85;17.33;;;;;;;-142.75;100.00;80197.88;5012454;28;20033;-71
2022/01/13 08:43:32;;;;;;;52.72;18.67;;;;;;;-142.75;100.00;80205.75;5043479;28;20021;-69
2022/01/13 08:45:57;;;;;;;50.37;19.60;;;;;;;-142.75;100.00;80205.75;5002470;28;1040116;-69
2022/01/13 08:48:22;;;;;;;46.00;17.70;;;;;;;-142.75;100.00;80197.88;5022372;28;20026;-70
2022/01/13 08:50:48;;;;;;;54.58;18.90;;;;;;;-142.75;100.00;80195.91;5035186;28;20017;-70
2022/01/13 08:53:15;;;;;;;50.55;18.10;;;;;;;-142.75;100.00;80195.91;5036661;28;20028;-70
2022/01/13 08:55:41;;;;;;;47.07;18.93;;;;;;;-142.75;100.00;80189.97;5034785;28;20475;-68
2022/01/13 08:58:06;;;;;;;46.22;18.40;;;;;;;-142.75;100.00;80182.09;5042802;28;20028;-69
2022/01/13 09:00:34;;;;;;;56.42;20.10;;;;;;;-142.75;100.00;80184.06;5042924;28;20116;-69
2022/01/13 09:03:00;;;;;;;50.83;20.57;;;;;;;-142.75;100.00;80174.22;5036532;28;20060;-70
2022/01/13 09:05:26;;;;;;;55.95;18.77;;;;;;;-142.75;100.00;80170.28;5048499;28;20125;-69
2022/01/13 09:07:51;;;;;;;47.60;18.02;;;;;;;-142.75;100.00;80172.25;5033530;28;20120;-69
2022/01/13 09:10:17;;;;;;;49.63;18.38;;;;;;;-142.75;100.00;80168.31;5037788;28;20032;-69
2022/01/13 09:12:43;;;;;;;;;;;;;;;-142.75;100.00;80162.41;5016471;28;20025;-70
2022/01/13 09:15:17;;;;;;;53.00;19.43;;;;;;;-142.75;100.00;80166.34;5026711;28;19991;-70
2022/01/13 09:17:45;;;;;;;47.57;18.10;;;;;;;-142.75;100.00;80150.59;5053890;28;20131;-69
2022/01/13 09:20:12;;;;;;;45.23;18.73;;;;;;;-142.75;100.00;80148.59;5038584;28;20407;-70
2022/01/13 09:22:37;;;;;;;50.40;19.33;;;;;;;-142.75;100.00;80144.66;5033939;28;20060;-69
2022/01/13 09:25:03;;;;;;;50.38;19.40;;;;;;;-142.75;100.00;80146.63;5034247;28;20525;-69
2022/01/13 09:27:29;;;;;;;48.35;19.42;;;;;;;-142.75;100.00;80150.59;5021357;28;20075;-70
2022/01/13 09:29:54;;;;;;;57.83;18.73;;;;;;;-142.75;100.00;80146.63;5053870;28;20053;-70
2022/01/13 09:32:19;;;;;;;46.13;18.25;;;;;;;-142.75;100.00;80146.63;5041869;28;20022;-69
2022/01/13 09:34:45;;;;;;;53.08;17.73;;;;;;;-142.75;100.00;80132.84;5032059;28;20033;-70
2022/01/13 09:37:11;;;;;;;57.63;18.00;;;;;;;-142.75;100.00;80136.78;5023367;28;20490;-69
2022/01/13 09:39:37;;;;;;;44.97;16.70;;;;;;;-142.75;100.00;80136.78;5016005;28;20371;-69
2022/01/13 09:42:03;;;;;;;62.42;18.33;;;;;;;-142.75;100.00;80142.69;5041158;28;20112;-69
2022/01/13 09:44:28;;;;;;;47.92;17.88;;;;;;;-142.75;100.00;80144.66;5047516;28;20018;-68
2022/01/13 09:46:55;;;;;;;52.88;19.05;;;;;;;-142.75;100.00;80138.75;5040883;28;20104;-68
2022/01/13 09:49:20;;;;;;;;;;;;;;;-142.75;100.00;80140.72;5043329;28;20490;-68
2022/01/13 09:51:45;;;;;;;53.40;19.57;;;;;;;-142.75;100.00;80142.69;5022640;28;19967;-70
2022/01/13 09:54:12;;;;;;;50.53;19.33;;;;;;;-142.75;100.00;80142.69;5037014;28;20057;-69
2022/01/13 09:56:38;;;;;;;58.20;19.00;;;;;;;-142.75;100.00;80132.84;5050996;28;20076;-70
2022/01/13 09:59:05;;;;;;;58.27;20.40;;;;;;;-142.75;100.00;80128.91;5024276;28;20029;-69
2022/01/13 10:01:31;;;;;;;44.07;17.20;;;;;;;-142.75;100.00;80107.22;5039605;28;20284;-69
2022/01/13 10:03:56;;;;;;;49.78;18.75;;;;;;;-142.75;100.00;80117.09;5026078;28;20028;-70
2022/01/13 10:06:22;;;;;;;51.40;20.47;;;;;;;-142.75;100.00;80101.31;5055094;28;20025;-67
2022/01/13 10:08:56;;;;;;;63.53;19.30;;;;;;;-142.75;100.00;80109.22;5036426;28;20471;-69
2022/01/13 10:11:38;;;;;;;51.33;18.90;;;;;;;-142.75;100.00;80126.94;5018409;28;20029;-69
2022/01/13 10:14:04;;;;;;;57.83;20.30;;;;;;;-142.75;100.00;80136.78;5022397;28;20029;-69
2022/01/13 10:16:29;;;;;;;54.42;17.70;;;;;;;-142.75;100.00;80134.81;5045790;28;20086;-70
2022/01/13 10:18:54;;;;;;;50.65;17.75;;;;;;;-142.75;100.00;80142.69;5037245;28;20036;-68
2022/01/13 10:21:21;;;;;;;66.15;18.15;;;;;;;-142.75;100.00;80148.59;5044123;28;20029;-69
2022/01/13 10:24:09;;;;;;;;;;;;;;;-142.75;100.00;80154.53;5043082;28;20055;-69
2022/01/13 10:26:36;;;;;;;43.43;15.10;;;;;;;-142.75;100.00;80136.78;5036403;28;20381;-70
2022/01/13 10:29:04;;;;;;;41.17;17.73;;;;;;;-142.75;100.00;80119.06;5048457;28;20038;-70
2022/01/13 10:31:51;;;;;;;53.07;18.17;;;;;;;-142.75;100.00;80130.88;5036001;28;20491;-69
2022/01/13 10:34:18;;;;;;;47.92;18.48;;;;;;;-142.75;100.00;80126.94;5024958;28;20026;-69
2022/01/13 10:37:13;;;;;;;49.97;17.80;;;;;;;-142.75;100.00;80111.19;5038029;28;20035;-69
2022/01/13 10:39:59;;;;;;;48.20;18.17;;;;;;;-142.75;100.00;80103.28;5040064;28;20136;-69
2022/01/13 10:45:09;;;;;;;53.17;19.23;;;;;;;-142.75;100.00;80089.50;5043266;28;20037;-69
2022/01/13 10:47:35;;;;;;;48.10;18.40;;;;;;;-142.75;100.00;80087.53;5039630;23;20052;-68
2022/01/13 10:50:12;;;;;;;49.80;19.98;;;;;;;-142.75;100.00;80083.59;5012054;28;20633;-67
2022/01/13 10:52:39;;;;;;;55.03;19.30;;;;;;;-142.75;100.00;80097.38;5014632;28;20061;-69
2022/01/13 10:55:32;;;;;;;53.47;20.60;;;;;;;-142.75;100.00;80085.56;5014542;28;20044;-68
2022/01/13 10:57:58;;;;;;;50.37;19.90;;;;;;;-142.75;100.00;80083.59;5027115;28;20049;-68
2022/01/13 11:00:25;;;;;;;49.30;19.65;;;;;;;-142.75;100.00;80081.63;5032204;28;20107;-67
2022/01/13 11:03:09;;;;;;;52.47;20.37;;;;;;;-142.75;100.00;80077.69;5030676;28;20017;-67
2022/01/13 11:05:41;;;;;;;48.43;18.67;;;;;;;-142.75;100.00;80067.84;5010342;28;20017;-68
2022/01/13 11:08:08;;;;;;;54.47;21.27;;;;;;;-142.75;100.00;80081.63;5010547;28;20037;-67
2022/01/13 11:10:35;;;;;;;49.30;19.50;;;;;;;-142.75;100.00;80087.53;5011568;28;20021;-68
2022/01/13 11:13:03;;;;;;;46.03;19.40;;;;;;;-142.75;100.00;80087.53;5009539;28;20022;-68
2022/01/13 11:15:30;;;;;;;46.60;19.73;;;;;;;-142.75;100.00;80069.81;5008145;28;20125;-68
2022/01/13 11:17:58;;;;;;;53.37;19.93;;;;;;;-142.75;100.00;80067.84;5010617;28;20440;-68
2022/01/13 11:20:25;;;;;;;56.37;20.90;;;;;;;-142.75;100.00;80069.81;5011042;28;20045;-68
2022/01/13 11:22:53;;;;;;;49.97;21.00;;;;;;;-142.75;100.00;80056.00;5009953;28;20028;-67
2022/01/13 11:25:23;;;;;;;56.97;21.37;;;;;;;-142.75;100.00;80061.91;5011177;28;20025;-68